Lowry, MN (56349)

10:47 AM CDT on September 05, 2015 (GMT -0500)
KMGK (Magic 107.1) FM | | Change Station
CLOSE
Current Station
Personal Weather Station
Location: Glenwood, MN
Elevation: 1168 ft
Nearby Weather Stations

Elev 1168 ft 45.65 °N, 95.39 °W | Updated 14 seconds ago

Partly Cloudy
Partly Cloudy
79.8 °F
Feels Like 84 °F
N
3.0
Wind Variable Wind from SSW
Gusts 16.0 mph

Today
High -- | Low -- °F
--% Chance of Precip.
Yesterday
High -- | Low -- °F
Precip. -- in
6:47 AM 7:52 PM
Waning Gibbous, 47% visible
Pressure 29.89 in
Visibility 10.0 miles
Clouds Clear
Heat Index 84 °F
Dew Point 74 °F
Humidity 83%
Rainfall in
Snow Depth Not available.
UV 5 out of 12
Pollen 8.30 out of 12
Air Quality Not available.
Flu Activity Not available.
METAR KGHW 051534Z AUTO 16015G19KT 10SM CLR 27/22 A2989 RMK AO2 LTG DSNT SE
Pressure 29.89 in
Visibility 10.0 miles
Clouds Clear
Heat Index 84 °F
Dew Point 74 °F
Humidity 83%
Rainfall in
Snow Depth Not available.
UV 5 out of 12
Pollen 8.30 out of 12
Air Quality Not available.
Flu Activity Not available.
METAR KGHW 051534Z AUTO 16015G19KT 10SM CLR 27/22 A2989 RMK AO2 LTG DSNT SE

10-Day Weather Forecast

×

Almanac

Astronomy

Sep. 05, 2015 Rise Set
Actual Time
Civil Twilight
Nautical Twilight
Astronomical Twilight
Moon
Length of Visible Light
Length of Day
Tomorrow will be .
, % of the Moon is Illuminated

Today's Extremes

State Highs State Lows

Community

WunderPhotos

Upload Photos

1,852,483 photos uploaded!

WunderBlogs® & News

Nearby

Air Quality

  Air Quality AQ Index Pollutant
Not available.

Snow Depth

Station Depth Elevation

Earthquake Activity

City Distance Mag. Time & Date
Minimum magnitude displayed is 2.5.

Coastal Water Temperatures

Place Temperature

Stations

Nearby Weather Stations

Station Location Temp. Windchill Dew Point Humidity Wind Precip. Elev Updated Type